sensor_id;sensor_type;location;lat;lon;timestamp;pressure;altitude;pressure_sealevel;temperature;humidity
48630;BME280;34426;52.180;4.462;2023-03-21T00:01:02;101682.16;;;8.75;96.80
48630;BME280;34426;52.180;4.462;2023-03-21T00:03:38;101686.66;;;8.76;97.42
48630;BME280;34426;52.180;4.462;2023-03-21T00:06:09;101683.63;;;8.78;97.27
48630;BME280;34426;52.180;4.462;2023-03-21T00:08:35;101679.13;;;8.77;96.66
48630;BME280;34426;52.180;4.462;2023-03-21T00:11:05;101681.69;;;8.78;96.75
48630;BME280;34426;52.180;4.462;2023-03-21T00:13:33;101672.25;;;8.79;96.57
48630;BME280;34426;52.180;4.462;2023-03-21T00:16:03;101668.00;;;8.77;97.10
48630;BME280;34426;52.180;4.462;2023-03-21T00:18:32;101667.13;;;8.76;97.43
48630;BME280;34426;52.180;4.462;2023-03-21T00:21:01;101658.53;;;8.78;96.63
48630;BME280;34426;52.180;4.462;2023-03-21T00:23:27;101674.78;;;8.81;96.80
48630;BME280;34426;52.180;4.462;2023-03-21T00:25:56;101661.09;;;8.79;97.65
48630;BME280;34426;52.180;4.462;2023-03-21T00:28:25;101669.22;;;8.81;97.54
48630;BME280;34426;52.180;4.462;2023-03-21T00:30:56;101675.66;;;8.81;97.00
48630;BME280;34426;52.180;4.462;2023-03-21T00:33:27;101665.34;;;8.82;97.23
48630;BME280;34426;52.180;4.462;2023-03-21T00:36:04;101658.06;;;8.81;97.39
48630;BME280;34426;52.180;4.462;2023-03-21T00:38:32;101659.75;;;8.82;97.27
48630;BME280;34426;52.180;4.462;2023-03-21T00:40:58;101658.69;;;8.83;97.18
48630;BME280;34426;52.180;4.462;2023-03-21T00:43:24;101659.75;;;8.82;97.50
48630;BME280;34426;52.180;4.462;2023-03-21T00:45:50;101655.50;;;8.79;97.09
48630;BME280;34426;52.180;4.462;2023-03-21T00:48:16;101660.13;;;8.85;97.49
48630;BME280;34426;52.180;4.462;2023-03-21T00:50:44;101653.47;;;8.86;97.33
48630;BME280;34426;52.180;4.462;2023-03-21T00:53:12;101653.72;;;8.85;96.97
48630;BME280;34426;52.180;4.462;2023-03-21T00:55:40;101645.56;;;8.83;96.79
48630;BME280;34426;52.180;4.462;2023-03-21T00:58:07;101640.84;;;8.84;97.83
48630;BME280;34426;52.180;4.462;2023-03-21T01:00:35;101640.84;;;8.84;96.77
48630;BME280;34426;52.180;4.462;2023-03-21T01:03:02;101633.56;;;8.83;97.09
48630;BME280;34426;52.180;4.462;2023-03-21T01:05:29;101635.75;;;8.81;97.51
48630;BME280;34426;52.180;4.462;2023-03-21T01:07:55;101634.66;;;8.82;97.44
48630;BME280;34426;52.180;4.462;2023-03-21T01:10:24;101626.28;;;8.82;97.63
48630;BME280;34426;52.180;4.462;2023-03-21T01:12:49;101621.78;;;8.81;96.94
48630;BME280;34426;52.180;4.462;2023-03-21T01:15:18;101624.59;;;8.81;96.78
48630;BME280;34426;52.180;4.462;2023-03-21T01:17:44;101616.84;;;8.83;97.61
48630;BME280;34426;52.180;4.462;2023-03-21T01:20:17;101616.47;;;8.79;97.27
48630;BME280;34426;52.180;4.462;2023-03-21T01:22:43;101608.69;;;8.81;97.08
48630;BME280;34426;52.180;4.462;2023-03-21T01:25:09;101611.72;;;8.80;97.09
48630;BME280;34426;52.180;4.462;2023-03-21T01:27:35;101606.75;;;8.82;96.67
48630;BME280;34426;52.180;4.462;2023-03-21T01:30:01;101594.50;;;8.83;96.98
48630;BME280;34426;52.180;4.462;2023-03-21T01:32:27;101598.41;;;8.82;96.65
48630;BME280;34426;52.180;4.462;2023-03-21T01:34:56;101592.34;;;8.85;96.57
48630;BME280;34426;52.180;4.462;2023-03-21T01:37:24;101593.44;;;8.84;97.33
48630;BME280;34426;52.180;4.462;2023-03-21T01:39:52;101582.03;;;8.85;97.03
48630;BME280;34426;52.180;4.462;2023-03-21T01:42:18;101589.06;;;8.88;97.03
48630;BME280;34426;52.180;4.462;2023-03-21T01:44:58;101584.59;;;8.87;95.72
48630;BME280;34426;52.180;4.462;2023-03-21T01:47:25;101584.59;;;8.87;96.04
48630;BME280;34426;52.180;4.462;2023-03-21T01:49:54;101581.56;;;8.88;96.00
48630;BME280;34426;52.180;4.462;2023-03-21T01:52:26;101584.97;;;8.90;95.84
48630;BME280;34426;52.180;4.462;2023-03-21T01:54:53;101583.03;;;8.91;95.79
48630;BME280;34426;52.180;4.462;2023-03-21T01:57:24;101582.41;;;8.89;95.46
48630;BME280;34426;52.180;4.462;2023-03-21T01:59:53;101578.06;;;8.93;95.57
48630;BME280;34426;52.180;4.462;2023-03-21T02:02:23;101575.88;;;8.95;95.42
48630;BME280;34426;52.180;4.462;2023-03-21T02:04:51;101573.09;;;8.95;95.36
48630;BME280;34426;52.180;4.462;2023-03-21T02:07:18;101572.84;;;8.96;94.86
48630;BME280;34426;52.180;4.462;2023-03-21T02:09:51;101570.28;;;8.95;94.96
48630;BME280;34426;52.180;4.462;2023-03-21T02:12:20;101565.56;;;8.95;94.63
48630;BME280;34426;52.180;4.462;2023-03-21T02:14:47;101566.78;;;8.99;95.29
48630;BME280;34426;52.180;4.462;2023-03-21T02:17:18;101564.00;;;8.99;94.64
48630;BME280;34426;52.180;4.462;2023-03-21T02:23:05;101565.56;;;8.95;95.46
48630;BME280;34426;52.180;4.462;2023-03-21T02:28:50;101548.44;;;8.92;95.32
48630;BME280;34426;52.180;4.462;2023-03-21T02:31:26;101549.53;;;8.91;95.51
48630;BME280;34426;52.180;4.462;2023-03-21T02:36:59;101545.28;;;8.88;95.97
48630;BME280;34426;52.180;4.462;2023-03-21T02:39:33;101535.47;;;8.86;96.26
48630;BME280;34426;52.180;4.462;2023-03-21T02:42:07;101536.44;;;8.91;96.40
48630;BME280;34426;52.180;4.462;2023-03-21T02:44:42;101539.94;;;8.87;95.83
48630;BME280;34426;52.180;4.462;2023-03-21T02:47:15;101531.34;;;8.88;96.53
48630;BME280;34426;52.180;4.462;2023-03-21T02:49:48;101531.94;;;8.90;96.92
48630;BME280;34426;52.180;4.462;2023-03-21T02:52:21;101539.94;;;8.87;96.49
48630;BME280;34426;52.180;4.462;2023-03-21T02:54:48;101530.50;;;8.88;96.57
48630;BME280;34426;52.180;4.462;2023-03-21T02:57:17;101530.13;;;8.84;96.24
48630;BME280;34426;52.180;4.462;2023-03-21T02:59:44;101525.16;;;8.86;96.77
48630;BME280;34426;52.180;4.462;2023-03-21T03:02:14;101527.09;;;8.86;96.53
48630;BME280;34426;52.180;4.462;2023-03-21T03:04:41;101529.03;;;8.85;97.04
48630;BME280;34426;52.180;4.462;2023-03-21T03:07:20;101534.25;;;8.82;96.34
48630;BME280;34426;52.180;4.462;2023-03-21T03:10:02;101522.94;;;8.77;96.13
48630;BME280;34426;52.180;4.462;2023-03-21T03:12:36;101529.75;;;8.81;96.65
48630;BME280;34426;52.180;4.462;2023-03-21T03:15:11;101527.44;;;8.78;96.66
48630;BME280;34426;52.180;4.462;2023-03-21T03:17:50;101523.31;;;8.80;97.39
48630;BME280;34426;52.180;4.462;2023-03-21T03:20:23;101509.13;;;8.82;96.68
48630;BME280;34426;52.180;4.462;2023-03-21T03:22:59;101512.16;;;8.80;96.00
48630;BME280;34426;52.180;4.462;2023-03-21T03:25:31;101517.38;;;8.77;96.46
48630;BME280;34426;52.180;4.462;2023-03-21T03:28:02;101516.88;;;8.80;96.68
48630;BME280;34426;52.180;4.462;2023-03-21T03:30:30;101518.22;;;8.77;96.81
48630;BME280;34426;52.180;4.462;2023-03-21T03:33:00;101509.84;;;8.77;96.23
48630;BME280;34426;52.180;4.462;2023-03-21T03:35:27;101517.59;;;8.75;96.31
48630;BME280;34426;52.180;4.462;2023-03-21T03:37:56;101514.44;;;8.72;96.50
48630;BME280;34426;52.180;4.462;2023-03-21T03:40:25;101517.84;;;8.74;96.42
48630;BME280;34426;52.180;4.462;2023-03-21T03:42:55;101518.94;;;8.73;96.63
48630;BME280;34426;52.180;4.462;2023-03-21T03:45:29;101511.03;;;8.70;96.60
48630;BME280;34426;52.180;4.462;2023-03-21T03:48:03;101514.91;;;8.68;95.95
48630;BME280;34426;52.180;4.462;2023-03-21T03:50:31;101514.91;;;8.68;96.88
48630;BME280;34426;52.180;4.462;2023-03-21T03:53:03;101510.72;;;8.66;96.63
48630;BME280;34426;52.180;4.462;2023-03-21T03:55:35;101504.00;;;8.67;96.16
48630;BME280;34426;52.180;4.462;2023-03-21T03:58:09;101508.16;;;8.64;96.32
48630;BME280;34426;52.180;4.462;2023-03-21T04:00:36;101505.94;;;8.66;96.03
48630;BME280;34426;52.180;4.462;2023-03-21T04:03:02;101500.88;;;8.63;96.80
48630;BME280;34426;52.180;4.462;2023-03-21T04:05:28;101501.34;;;8.60;96.32
48630;BME280;34426;52.180;4.462;2023-03-21T04:07:54;101506.22;;;8.65;95.77
48630;BME280;34426;52.180;4.462;2023-03-21T04:10:21;101501.72;;;8.64;96.51
48630;BME280;34426;52.180;4.462;2023-03-21T04:12:47;101505.38;;;8.64;96.18
48630;BME280;34426;52.180;4.462;2023-03-21T04:15:13;101509.25;;;8.63;96.74
48630;BME280;34426;52.180;4.462;2023-03-21T04:17:41;101498.56;;;8.60;95.97
48630;BME280;34426;52.180;4.462;2023-03-21T04:20:07;101498.19;;;8.57;95.83
48630;BME280;34426;52.180;4.462;2023-03-21T04:22:34;101498.19;;;8.57;96.11
48630;BME280;34426;52.180;4.462;2023-03-21T04:25:02;101492.38;;;8.58;95.90
48630;BME280;34426;52.180;4.462;2023-03-21T04:27:32;101492.84;;;8.55;95.92
48630;BME280;34426;52.180;4.462;2023-03-21T04:29:58;101487.28;;;8.55;96.18
48630;BME280;34426;52.180;4.462;2023-03-21T04:32:27;101493.72;;;8.56;96.82
48630;BME280;34426;52.180;4.462;2023-03-21T04:34:53;101489.59;;;8.58;95.82
48630;BME280;34426;52.180;4.462;2023-03-21T04:37:19;101490.69;;;8.57;95.78
48630;BME280;34426;52.180;4.462;2023-03-21T04:39:51;101487.41;;;8.60;96.16
48630;BME280;34426;52.180;4.462;2023-03-21T04:42:17;101486.19;;;8.56;95.84
48630;BME280;34426;52.180;4.462;2023-03-21T04:44:45;101479.53;;;8.57;96.55
48630;BME280;34426;52.180;4.462;2023-03-21T04:47:17;101475.66;;;8.58;95.60
48630;BME280;34426;52.180;4.462;2023-03-21T04:49:42;101483.16;;;8.58;95.95
48630;BME280;34426;52.180;4.462;2023-03-21T04:52:13;101474.56;;;8.59;96.09
48630;BME280;34426;52.180;4.462;2023-03-21T04:54:39;101469.94;;;8.53;96.39
48630;BME280;34426;52.180;4.462;2023-03-21T04:57:05;101472.63;;;8.60;95.78
48630;BME280;34426;52.180;4.462;2023-03-21T04:59:33;101475.66;;;8.58;95.73
48630;BME280;34426;52.180;4.462;2023-03-21T05:02:00;101472.25;;;8.56;96.01
48630;BME280;34426;52.180;4.462;2023-03-21T05:04:29;101461.09;;;8.56;96.47
48630;BME280;34426;52.180;4.462;2023-03-21T05:06:56;101464.97;;;8.55;96.49
48630;BME280;34426;52.180;4.462;2023-03-21T05:09:21;101459.63;;;8.54;96.29
48630;BME280;34426;52.180;4.462;2023-03-21T05:11:47;101463.28;;;8.54;96.47
48630;BME280;34426;52.180;4.462;2023-03-21T05:14:15;101462.06;;;8.50;96.38
48630;BME280;34426;52.180;4.462;2023-03-21T05:16:43;101460.34;;;8.49;96.63
48630;BME280;34426;52.180;4.462;2023-03-21T05:19:10;101465.56;;;8.46;96.44
48630;BME280;34426;52.180;4.462;2023-03-21T05:21:36;101467.13;;;8.42;97.46
48630;BME280;34426;52.180;4.462;2023-03-21T05:24:01;101476.59;;;8.52;97.08
48630;BME280;34426;52.180;4.462;2023-03-21T05:26:27;101476.13;;;8.55;96.36
48630;BME280;34426;52.180;4.462;2023-03-21T05:28:52;101472.59;;;8.48;96.72
48630;BME280;34426;52.180;4.462;2023-03-21T05:31:18;101467.63;;;8.50;96.12
48630;BME280;34426;52.180;4.462;2023-03-21T05:33:44;101465.44;;;8.52;96.06
48630;BME280;34426;52.180;4.462;2023-03-21T05:36:12;101466.63;;;8.45;96.36
48630;BME280;34426;52.180;4.462;2023-03-21T05:38:38;101461.31;;;8.43;97.04
48630;BME280;34426;52.180;4.462;2023-03-21T05:41:04;101462.91;;;8.51;96.46
48630;BME280;34426;52.180;4.462;2023-03-21T05:43:30;101470.88;;;8.47;96.25
48630;BME280;34426;52.180;4.462;2023-03-21T05:45:55;101468.00;;;8.54;96.21
48630;BME280;34426;52.180;4.462;2023-03-21T05:48:21;101471.53;;;8.61;95.89
48630;BME280;34426;52.180;4.462;2023-03-21T05:50:47;101471.03;;;8.52;95.86
48630;BME280;34426;52.180;4.462;2023-03-21T05:53:13;101463.00;;;8.44;95.76
48630;BME280;34426;52.180;4.462;2023-03-21T05:55:39;101466.41;;;8.46;96.18
48630;BME280;34426;52.180;4.462;2023-03-21T05:58:04;101464.00;;;8.50;96.86
48630;BME280;34426;52.180;4.462;2023-03-21T06:00:30;101464.09;;;8.43;96.65
48630;BME280;34426;52.180;4.462;2023-03-21T06:02:55;101460.69;;;8.41;96.67
48630;BME280;34426;52.180;4.462;2023-03-21T06:05:21;101458.75;;;8.42;96.03
48630;BME280;34426;52.180;4.462;2023-03-21T06:07:47;101461.78;;;8.40;96.62
48630;BME280;34426;52.180;4.462;2023-03-21T06:10:15;101464.97;;;8.55;96.43
48630;BME280;34426;52.180;4.462;2023-03-21T06:12:40;101460.34;;;8.49;96.04
48630;BME280;34426;52.180;4.462;2023-03-21T06:15:07;101469.94;;;8.53;95.93
48630;BME280;34426;52.180;4.462;2023-03-21T06:17:32;101466.19;;;8.59;96.29
48630;BME280;34426;52.180;4.462;2023-03-21T06:20:01;101458.66;;;8.48;96.10
48630;BME280;34426;52.180;4.462;2023-03-21T06:22:29;101456.84;;;8.54;95.93
48630;BME280;34426;52.180;4.462;2023-03-21T06:24:58;101463.28;;;8.54;96.01
48630;BME280;34426;52.180;4.462;2023-03-21T06:27:25;101463.28;;;8.54;95.73
48630;BME280;34426;52.180;4.462;2023-03-21T06:29:52;101459.88;;;8.52;96.22
48630;BME280;34426;52.180;4.462;2023-03-21T06:32:20;101462.44;;;8.54;96.51
48630;BME280;34426;52.180;4.462;2023-03-21T06:34:46;101463.28;;;8.54;96.13
48630;BME280;34426;52.180;4.462;2023-03-21T06:37:16;101466.19;;;8.59;96.80
48630;BME280;34426;52.180;4.462;2023-03-21T06:39:41;101452.72;;;8.68;96.33
48630;BME280;34426;52.180;4.462;2023-03-21T06:42:07;101465.34;;;8.71;95.30
48630;BME280;34426;52.180;4.462;2023-03-21T06:44:35;101456.97;;;8.71;94.88
48630;BME280;34426;52.180;4.462;2023-03-21T06:47:00;101464.72;;;8.68;95.46
48630;BME280;34426;52.180;4.462;2023-03-21T06:49:35;101453.09;;;8.72;94.65
48630;BME280;34426;52.180;4.462;2023-03-21T06:52:01;101447.28;;;8.61;95.35
48630;BME280;34426;52.180;4.462;2023-03-21T06:54:27;101446.53;;;8.54;95.32
48630;BME280;34426;52.180;4.462;2023-03-21T06:56:52;101429.81;;;8.54;95.63
48630;BME280;34426;52.180;4.462;2023-03-21T06:59:18;101435.88;;;8.51;95.61
48630;BME280;34426;52.180;4.462;2023-03-21T07:01:45;101434.19;;;8.62;96.19
48630;BME280;34426;52.180;4.462;2023-03-21T07:04:10;101431.78;;;8.65;95.43
48630;BME280;34426;52.180;4.462;2023-03-21T07:06:36;101428.00;;;8.72;95.32
48630;BME280;34426;52.180;4.462;2023-03-21T07:09:02;101430.56;;;8.61;95.75
48630;BME280;34426;52.180;4.462;2023-03-21T07:11:28;101438.53;;;8.70;96.10
48630;BME280;34426;52.180;4.462;2023-03-21T07:13:54;101433.81;;;8.70;95.40
48630;BME280;34426;52.180;4.462;2023-03-21T07:16:20;101429.34;;;8.57;95.53
48630;BME280;34426;52.180;4.462;2023-03-21T07:18:47;101427.75;;;8.61;95.49
48630;BME280;34426;52.180;4.462;2023-03-21T07:21:16;101429.94;;;8.71;95.76
48630;BME280;34426;52.180;4.462;2023-03-21T07:23:45;101431.38;;;8.74;95.40
48630;BME280;34426;52.180;4.462;2023-03-21T07:26:11;101427.03;;;8.78;95.29
48630;BME280;34426;52.180;4.462;2023-03-21T07:28:37;101427.88;;;8.78;94.87
48630;BME280;34426;52.180;4.462;2023-03-21T07:31:06;101425.69;;;8.80;94.48
48630;BME280;34426;52.180;4.462;2023-03-21T07:33:33;101420.34;;;8.79;94.46
48630;BME280;34426;52.180;4.462;2023-03-21T07:36:01;101413.81;;;8.85;94.69
48630;BME280;34426;52.180;4.462;2023-03-21T07:38:27;101412.47;;;8.76;94.32
48630;BME280;34426;52.180;4.462;2023-03-21T07:40:53;101407.13;;;8.74;94.48
48630;BME280;34426;52.180;4.462;2023-03-21T07:43:19;101412.47;;;8.76;94.74
48630;BME280;34426;52.180;4.462;2023-03-21T07:45:45;101408.34;;;8.78;95.27
48630;BME280;34426;52.180;4.462;2023-03-21T07:48:12;101411.38;;;8.77;95.25
48630;BME280;34426;52.180;4.462;2023-03-21T07:50:38;101403.75;;;8.84;94.64
48630;BME280;34426;52.180;4.462;2023-03-21T07:53:08;101406.41;;;8.90;94.67
48630;BME280;34426;52.180;4.462;2023-03-21T07:55:42;101408.47;;;8.95;94.19
48630;BME280;34426;52.180;4.462;2023-03-21T07:58:08;101403.97;;;9.06;94.39
48630;BME280;34426;52.180;4.462;2023-03-21T08:00:33;101398.41;;;9.06;94.00
48630;BME280;34426;52.180;4.462;2023-03-21T08:03:00;101387.78;;;9.19;93.72
48630;BME280;34426;52.180;4.462;2023-03-21T08:05:27;101388.28;;;9.16;94.06
48630;BME280;34426;52.180;4.462;2023-03-21T08:07:56;101381.47;;;9.24;94.02
48630;BME280;34426;52.180;4.462;2023-03-21T08:10:23;101383.66;;;9.33;93.68
48630;BME280;34426;52.180;4.462;2023-03-21T08:12:49;101383.00;;;9.43;94.10
48630;BME280;34426;52.180;4.462;2023-03-21T08:15:15;101389.44;;;9.44;93.25
48630;BME280;34426;52.180;4.462;2023-03-21T08:17:41;101392.53;;;9.59;93.82
48630;BME280;34426;52.180;4.462;2023-03-21T08:20:12;101382.47;;;9.58;93.13
48630;BME280;34426;52.180;4.462;2023-03-21T08:22:42;101380.09;;;9.50;92.61
48630;BME280;34426;52.180;4.462;2023-03-21T08:25:09;101384.03;;;9.54;93.19
48630;BME280;34426;52.180;4.462;2023-03-21T08:30:22;101377.69;;;9.70;92.49
48630;BME280;34426;52.180;4.462;2023-03-21T08:32:48;101378.19;;;9.67;92.94
48630;BME280;34426;52.180;4.462;2023-03-21T08:35:16;101379.22;;;9.78;92.45
48630;BME280;34426;52.180;4.462;2023-03-21T08:37:45;101365.97;;;9.85;92.63
48630;BME280;34426;52.180;4.462;2023-03-21T08:40:13;101367.00;;;9.95;92.72
48630;BME280;34426;52.180;4.462;2023-03-21T08:42:42;101368.09;;;10.11;91.78
48630;BME280;34426;52.180;4.462;2023-03-21T08:45:09;101374.09;;;10.03;89.94
48630;BME280;34426;52.180;4.462;2023-03-21T08:47:35;101364.56;;;10.16;90.59
48630;BME280;34426;52.180;4.462;2023-03-21T08:50:01;101367.47;;;10.21;89.92
48630;BME280;34426;52.180;4.462;2023-03-21T08:52:27;101369.25;;;10.27;89.92
48630;BME280;34426;52.180;4.462;2023-03-21T08:54:53;101361.03;;;10.37;89.01
48630;BME280;34426;52.180;4.462;2023-03-21T08:57:18;101365.59;;;10.43;89.38
48630;BME280;34426;52.180;4.462;2023-03-21T08:59:45;101357.16;;;10.38;88.65
48630;BME280;34426;52.180;4.462;2023-03-21T09:02:15;101352.47;;;10.44;88.59
48630;BME280;34426;52.180;4.462;2023-03-21T09:04:41;101351.03;;;10.41;87.85
48630;BME280;34426;52.180;4.462;2023-03-21T09:07:06;101352.47;;;10.44;87.34
48630;BME280;34426;52.180;4.462;2023-03-21T09:09:32;101338.31;;;10.50;87.06
48630;BME280;34426;52.180;4.462;2023-03-21T09:12:00;101342.19;;;10.49;87.22
48630;BME280;34426;52.180;4.462;2023-03-21T09:14:25;101336.53;;;10.44;87.11
48630;BME280;34426;52.180;4.462;2023-03-21T09:16:52;101337.28;;;10.56;87.01
48630;BME280;34426;52.180;4.462;2023-03-21T09:19:20;101337.63;;;10.60;85.88
48630;BME280;34426;52.180;4.462;2023-03-21T09:21:47;101334.91;;;10.65;86.87
48630;BME280;34426;52.180;4.462;2023-03-21T09:24:12;101330.81;;;10.73;86.82
48630;BME280;34426;52.180;4.462;2023-03-21T09:26:38;101325.75;;;10.70;87.01
48630;BME280;34426;52.180;4.462;2023-03-21T09:29:03;101343.53;;;10.80;86.53
48630;BME280;34426;52.180;4.462;2023-03-21T09:31:32;101326.91;;;10.74;86.73
48630;BME280;34426;52.180;4.462;2023-03-21T09:33:59;101321.84;;;10.71;86.15
48630;BME280;34426;52.180;4.462;2023-03-21T09:36:25;101325.59;;;10.59;85.45
48630;BME280;34426;52.180;4.462;2023-03-21T09:38:52;101324.13;;;10.74;85.89
48630;BME280;34426;52.180;4.462;2023-03-21T09:41:27;101323.34;;;10.78;85.60
48630;BME280;34426;52.180;4.462;2023-03-21T09:44:07;101320.94;;;10.87;85.79
48630;BME280;34426;52.180;4.462;2023-03-21T09:46:40;101326.69;;;10.97;85.65
48630;BME280;34426;52.180;4.462;2023-03-21T09:49:17;101319.44;;;11.01;85.33
48630;BME280;34426;52.180;4.462;2023-03-21T09:51:46;101316.72;;;11.06;85.40
48630;BME280;34426;52.180;4.462;2023-03-21T09:54:17;101326.81;;;11.07;84.70
48630;BME280;34426;52.180;4.462;2023-03-21T09:56:48;101340.56;;;11.09;85.54
48630;BME280;34426;52.180;4.462;2023-03-21T09:59:23;101332.81;;;11.16;85.26
48630;BME280;34426;52.180;4.462;2023-03-21T10:01:53;101344.19;;;11.09;83.86
48630;BME280;34426;52.180;4.462;2023-03-21T10:04:21;101337.50;;;11.10;84.09
48630;BME280;34426;52.180;4.462;2023-03-21T10:06:54;101323.75;;;11.09;83.91
48630;BME280;34426;52.180;4.462;2023-03-21T10:09:22;101325.63;;;11.03;82.87
48630;BME280;34426;52.180;4.462;2023-03-21T10:11:52;101333.78;;;11.05;83.48
48630;BME280;34426;52.180;4.462;2023-03-21T10:14:20;101345.56;;;11.07;83.08
48630;BME280;34426;52.180;4.462;2023-03-21T10:16:52;101298.31;;;11.10;82.08
48630;BME280;34426;52.180;4.462;2023-03-21T10:19:23;101326.00;;;11.33;82.44
48630;BME280;34426;52.180;4.462;2023-03-21T10:21:52;101321.06;;;11.41;81.18
48630;BME280;34426;52.180;4.462;2023-03-21T10:24:20;101328.41;;;11.47;80.67
48630;BME280;34426;52.180;4.462;2023-03-21T10:26:47;101330.19;;;11.53;81.13
48630;BME280;34426;52.180;4.462;2023-03-21T10:29:15;101337.34;;;11.44;80.27
48630;BME280;34426;52.180;4.462;2023-03-21T10:31:45;101339.44;;;11.31;80.83
48630;BME280;34426;52.180;4.462;2023-03-21T10:34:16;101343.56;;;11.24;81.03
48630;BME280;34426;52.180;4.462;2023-03-21T10:36:44;101344.78;;;11.11;81.52
48630;BME280;34426;52.180;4.462;2023-03-21T10:39:20;101338.28;;;11.06;82.00
48630;BME280;34426;52.180;4.462;2023-03-21T10:41:46;101342.38;;;10.98;82.03
48630;BME280;34426;52.180;4.462;2023-03-21T10:44:14;101357.22;;;10.98;82.42
48630;BME280;34426;52.180;4.462;2023-03-21T10:46:50;101353.63;;;11.03;82.78
48630;BME280;34426;52.180;4.462;2023-03-21T10:49:16;101332.41;;;11.07;81.98
48630;BME280;34426;52.180;4.462;2023-03-21T10:51:41;101329.09;;;11.10;80.08
48630;BME280;34426;52.180;4.462;2023-03-21T10:54:13;101325.13;;;11.06;79.40
48630;BME280;34426;52.180;4.462;2023-03-21T10:56:42;101316.66;;;11.01;80.10
48630;BME280;34426;52.180;4.462;2023-03-21T10:59:16;101327.13;;;10.89;79.48
48630;BME280;34426;52.180;4.462;2023-03-21T11:01:47;101325.69;;;10.86;80.22
48630;BME280;34426;52.180;4.462;2023-03-21T11:04:16;101317.75;;;10.78;79.67
48630;BME280;34426;52.180;4.462;2023-03-21T11:06:44;101303.50;;;10.80;80.51
48630;BME280;34426;52.180;4.462;2023-03-21T11:09:17;101301.59;;;10.85;81.04
48630;BME280;34426;52.180;4.462;2023-03-21T11:11:49;101304.47;;;10.90;80.27
48630;BME280;34426;52.180;4.462;2023-03-21T11:14:31;101297.13;;;11.06;80.10
48630;BME280;34426;52.180;4.462;2023-03-21T11:16:57;101311.09;;;11.28;79.64
48630;BME280;34426;52.180;4.462;2023-03-21T11:19:29;101297.09;;;11.50;78.77
48630;BME280;34426;52.180;4.462;2023-03-21T11:21:55;101297.34;;;11.75;78.14
48630;BME280;34426;52.180;4.462;2023-03-21T11:24:22;101293.16;;;12.05;78.09
48630;BME280;34426;52.180;4.462;2023-03-21T11:26:48;101298.41;;;12.28;76.61
48630;BME280;34426;52.180;4.462;2023-03-21T11:29:22;101305.56;;;12.46;75.64
48630;BME280;34426;52.180;4.462;2023-03-21T11:31:50;101312.16;;;12.29;74.83
48630;BME280;34426;52.180;4.462;2023-03-21T11:34:26;101306.41;;;12.14;74.13
48630;BME280;34426;52.180;4.462;2023-03-21T11:36:57;101310.69;;;12.22;73.28
48630;BME280;34426;52.180;4.462;2023-03-21T11:39:31;101308.94;;;12.16;73.44
48630;BME280;34426;52.180;4.462;2023-03-21T11:41:57;101315.94;;;12.13;72.49
48630;BME280;34426;52.180;4.462;2023-03-21T11:44:26;101308.94;;;12.11;71.76
48630;BME280;34426;52.180;4.462;2023-03-21T11:46:52;101298.03;;;12.19;71.63
48630;BME280;34426;52.180;4.462;2023-03-21T11:49:19;101296.66;;;12.22;70.72
48630;BME280;34426;52.180;4.462;2023-03-21T11:51:49;101301.69;;;12.20;71.51
48630;BME280;34426;52.180;4.462;2023-03-21T11:54:21;101296.97;;;12.25;71.11
48630;BME280;34426;52.180;4.462;2023-03-21T11:56:53;101287.34;;;12.48;70.33
48630;BME280;34426;52.180;4.462;2023-03-21T11:59:37;101280.28;;;12.93;70.10
48630;BME280;34426;52.180;4.462;2023-03-21T12:02:39;101269.63;;;12.95;68.47
48630;BME280;34426;52.180;4.462;2023-03-21T12:05:12;101270.25;;;13.12;67.81
48630;BME280;34426;52.180;4.462;2023-03-21T12:07:50;101268.56;;;13.11;67.85
48630;BME280;34426;52.180;4.462;2023-03-21T12:10:39;101272.56;;;13.20;68.05
48630;BME280;34426;52.180;4.462;2023-03-21T12:13:21;101271.34;;;13.06;69.36
48630;BME280;34426;52.180;4.462;2023-03-21T12:15:59;101269.50;;;12.75;70.44
48630;BME280;34426;52.180;4.462;2023-03-21T12:18:41;101279.59;;;12.71;71.41
48630;BME280;34426;52.180;4.462;2023-03-21T12:21:18;101268.00;;;12.57;70.71
48630;BME280;34426;52.180;4.462;2023-03-21T12:23:55;101278.69;;;12.55;70.35
48630;BME280;34426;52.180;4.462;2023-03-21T12:26:24;101258.78;;;12.61;70.28
48630;BME280;34426;52.180;4.462;2023-03-21T12:29:03;101253.34;;;12.92;70.75
48630;BME280;34426;52.180;4.462;2023-03-21T12:31:40;101242.09;;;12.92;69.99
48630;BME280;34426;52.180;4.462;2023-03-21T12:34:20;101240.34;;;12.81;70.72
48630;BME280;34426;52.180;4.462;2023-03-21T12:37:03;101248.84;;;12.91;71.52
48630;BME280;34426;52.180;4.462;2023-03-21T12:39:34;101234.69;;;12.71;70.87
48630;BME280;34426;52.180;4.462;2023-03-21T12:42:12;101256.00;;;12.66;73.53
48630;BME280;34426;52.180;4.462;2023-03-21T12:44:48;101252.59;;;12.54;74.68
48630;BME280;34426;52.180;4.462;2023-03-21T12:47:19;101241.28;;;12.44;75.58
48630;BME280;34426;52.180;4.462;2023-03-21T12:49:50;101240.06;;;12.30;74.99
48630;BME280;34426;52.180;4.462;2023-03-21T12:52:20;101246.81;;;12.34;75.09
48630;BME280;34426;52.180;4.462;2023-03-21T12:54:49;101244.03;;;12.34;75.07
48630;BME280;34426;52.180;4.462;2023-03-21T12:57:18;101234.31;;;12.52;74.13
48630;BME280;34426;52.180;4.462;2023-03-21T12:59:49;101231.81;;;12.55;74.53
48630;BME280;34426;52.180;4.462;2023-03-21T13:02:28;101223.94;;;12.57;73.52
48630;BME280;34426;52.180;4.462;2023-03-21T13:04:57;101215.56;;;12.62;72.81
48630;BME280;34426;52.180;4.462;2023-03-21T13:07:26;101211.31;;;12.50;73.06
48630;BME280;34426;52.180;4.462;2023-03-21T13:09:53;101213.00;;;12.51;73.50
48630;BME280;34426;52.180;4.462;2023-03-21T13:12:31;101209.66;;;12.54;72.74
48630;BME280;34426;52.180;4.462;2023-03-21T13:15:12;101208.25;;;12.61;73.01
48630;BME280;34426;52.180;4.462;2023-03-21T13:17:41;101200.97;;;12.55;72.52
48630;BME280;34426;52.180;4.462;2023-03-21T13:20:16;101207.09;;;12.57;73.64